sensor_id;sensor_type;location;lat;lon;timestamp;temperature;humidity
3921;DHT22;1975;49.356;6.816;2023-04-16T00:00:09;12.50;99.90
3921;DHT22;1975;49.356;6.816;2023-04-16T00:02:34;12.60;99.90
3921;DHT22;1975;49.356;6.816;2023-04-16T00:05:00;12.50;99.90
3921;DHT22;1975;49.356;6.816;2023-04-16T00:07:25;12.50;99.90
3921;DHT22;1975;49.356;6.816;2023-04-16T00:09:51;12.50;99.90
3921;DHT22;1975;49.356;6.816;2023-04-16T00:12:16;12.50;99.90
3921;DHT22;1975;49.356;6.816;2023-04-16T00:14:42;12.50;99.90
3921;DHT22;1975;49.356;6.816;2023-04-16T00:17:08;12.50;99.90
3921;DHT22;1975;49.356;6.816;2023-04-16T00:19:33;12.50;99.90
3921;DHT22;1975;49.356;6.816;2023-04-16T00:21:59;12.50;99.90
3921;DHT22;1975;49.356;6.816;2023-04-16T00:24:24;12.50;99.90
3921;DHT22;1975;49.356;6.816;2023-04-16T00:26:50;12.50;99.90
3921;DHT22;1975;49.356;6.816;2023-04-16T00:29:15;12.50;99.90
3921;DHT22;1975;49.356;6.816;2023-04-16T00:31:41;12.50;99.90
3921;DHT22;1975;49.356;6.816;2023-04-16T00:34:06;12.50;99.90
3921;DHT22;1975;49.356;6.816;2023-04-16T00:36:32;12.50;99.90
3921;DHT22;1975;49.356;6.816;2023-04-16T00:38:57;12.50;99.90
3921;DHT22;1975;49.356;6.816;2023-04-16T00:41:22;12.40;99.90
3921;DHT22;1975;49.356;6.816;2023-04-16T00:43:48;12.40;99.90
3921;DHT22;1975;49.356;6.816;2023-04-16T00:46:14;12.40;99.90
3921;DHT22;1975;49.356;6.816;2023-04-16T00:48:40;12.40;99.90
3921;DHT22;1975;49.356;6.816;2023-04-16T00:51:07;12.40;99.90
3921;DHT22;1975;49.356;6.816;2023-04-16T00:53:33;12.40;99.90
3921;DHT22;1975;49.356;6.816;2023-04-16T00:55:59;12.40;99.90
3921;DHT22;1975;49.356;6.816;2023-04-16T00:58:26;12.40;99.90
3921;DHT22;1975;49.356;6.816;2023-04-16T01:00:52;12.40;99.90
3921;DHT22;1975;49.356;6.816;2023-04-16T01:03:18;12.40;99.90
3921;DHT22;1975;49.356;6.816;2023-04-16T01:05:43;12.40;99.90
3921;DHT22;1975;49.356;6.816;2023-04-16T01:08:19;12.40;99.90
3921;DHT22;1975;49.356;6.816;2023-04-16T01:10:45;12.40;99.90
3921;DHT22;1975;49.356;6.816;2023-04-16T01:13:11;12.30;99.90
3921;DHT22;1975;49.356;6.816;2023-04-16T01:15:37;12.30;99.90
3921;DHT22;1975;49.356;6.816;2023-04-16T01:18:02;12.30;99.90
3921;DHT22;1975;49.356;6.816;2023-04-16T01:20:37;12.30;99.90
3921;DHT22;1975;49.356;6.816;2023-04-16T01:23:02;12.30;99.90
3921;DHT22;1975;49.356;6.816;2023-04-16T01:25:27;12.30;99.90
3921;DHT22;1975;49.356;6.816;2023-04-16T01:27:53;12.30;99.90
3921;DHT22;1975;49.356;6.816;2023-04-16T01:30:19;12.30;99.90
3921;DHT22;1975;49.356;6.816;2023-04-16T01:32:44;12.30;99.90
3921;DHT22;1975;49.356;6.816;2023-04-16T01:35:10;12.30;99.90
3921;DHT22;1975;49.356;6.816;2023-04-16T01:37:35;12.30;99.90
3921;DHT22;1975;49.356;6.816;2023-04-16T01:40:01;12.30;99.90
3921;DHT22;1975;49.356;6.816;2023-04-16T01:42:26;12.30;99.90
3921;DHT22;1975;49.356;6.816;2023-04-16T01:44:52;12.20;99.90
3921;DHT22;1975;49.356;6.816;2023-04-16T01:47:17;12.20;99.90
3921;DHT22;1975;49.356;6.816;2023-04-16T01:49:43;12.20;99.90
3921;DHT22;1975;49.356;6.816;2023-04-16T01:52:09;12.20;99.90
3921;DHT22;1975;49.356;6.816;2023-04-16T01:54:35;12.20;99.90
3921;DHT22;1975;49.356;6.816;2023-04-16T01:57:00;12.20;99.90
3921;DHT22;1975;49.356;6.816;2023-04-16T01:59:26;12.20;99.90
3921;DHT22;1975;49.356;6.816;2023-04-16T02:01:51;12.20;99.90
3921;DHT22;1975;49.356;6.816;2023-04-16T02:04:17;12.20;99.90
3921;DHT22;1975;49.356;6.816;2023-04-16T02:06:42;12.20;99.90
3921;DHT22;1975;49.356;6.816;2023-04-16T02:09:08;12.20;99.90
3921;DHT22;1975;49.356;6.816;2023-04-16T02:11:34;12.20;99.90
3921;DHT22;1975;49.356;6.816;2023-04-16T02:13:59;12.20;99.90
3921;DHT22;1975;49.356;6.816;2023-04-16T02:16:25;12.20;99.90
3921;DHT22;1975;49.356;6.816;2023-04-16T02:18:50;12.10;99.90
3921;DHT22;1975;49.356;6.816;2023-04-16T02:21:16;12.10;99.90
3921;DHT22;1975;49.356;6.816;2023-04-16T02:23:41;12.10;99.90
3921;DHT22;1975;49.356;6.816;2023-04-16T02:26:07;12.10;99.90
3921;DHT22;1975;49.356;6.816;2023-04-16T02:28:34;12.10;99.90
3921;DHT22;1975;49.356;6.816;2023-04-16T02:30:59;12.10;99.90
3921;DHT22;1975;49.356;6.816;2023-04-16T02:33:25;12.10;99.90
3921;DHT22;1975;49.356;6.816;2023-04-16T02:35:50;12.10;99.90
3921;DHT22;1975;49.356;6.816;2023-04-16T02:38:16;12.10;99.90
3921;DHT22;1975;49.356;6.816;2023-04-16T02:40:41;12.10;99.90
3921;DHT22;1975;49.356;6.816;2023-04-16T02:43:08;12.10;99.90
3921;DHT22;1975;49.356;6.816;2023-04-16T02:45:33;12.10;99.90
3921;DHT22;1975;49.356;6.816;2023-04-16T02:47:59;12.10;99.90
3921;DHT22;1975;49.356;6.816;2023-04-16T02:50:24;12.10;99.90
3921;DHT22;1975;49.356;6.816;2023-04-16T02:52:50;12.10;99.90
3921;DHT22;1975;49.356;6.816;2023-04-16T02:55:15;12.10;99.90
3921;DHT22;1975;49.356;6.816;2023-04-16T02:57:41;12.00;99.90
3921;DHT22;1975;49.356;6.816;2023-04-16T03:00:06;12.00;99.90
3921;DHT22;1975;49.356;6.816;2023-04-16T03:02:32;12.00;99.90
3921;DHT22;1975;49.356;6.816;2023-04-16T03:04:58;12.00;99.90
3921;DHT22;1975;49.356;6.816;2023-04-16T03:07:23;12.00;99.90
3921;DHT22;1975;49.356;6.816;2023-04-16T03:09:49;12.00;99.90
3921;DHT22;1975;49.356;6.816;2023-04-16T03:12:14;12.00;99.90
3921;DHT22;1975;49.356;6.816;2023-04-16T03:14:40;12.00;99.90
3921;DHT22;1975;49.356;6.816;2023-04-16T03:17:05;12.00;99.90
3921;DHT22;1975;49.356;6.816;2023-04-16T03:19:31;12.00;99.90
3921;DHT22;1975;49.356;6.816;2023-04-16T03:21:56;11.90;99.90
3921;DHT22;1975;49.356;6.816;2023-04-16T03:24:22;11.90;99.90
3921;DHT22;1975;49.356;6.816;2023-04-16T03:26:47;12.00;99.90
3921;DHT22;1975;49.356;6.816;2023-04-16T03:29:13;11.90;99.90
3921;DHT22;1975;49.356;6.816;2023-04-16T03:31:38;11.90;99.90
3921;DHT22;1975;49.356;6.816;2023-04-16T03:34:04;11.90;99.90
3921;DHT22;1975;49.356;6.816;2023-04-16T03:36:29;11.90;99.90
3921;DHT22;1975;49.356;6.816;2023-04-16T03:38:55;11.90;99.90
3921;DHT22;1975;49.356;6.816;2023-04-16T03:41:21;11.90;99.90
3921;DHT22;1975;49.356;6.816;2023-04-16T03:43:46;11.90;99.90
3921;DHT22;1975;49.356;6.816;2023-04-16T03:46:12;11.80;99.90
3921;DHT22;1975;49.356;6.816;2023-04-16T03:48:37;11.80;99.90
3921;DHT22;1975;49.356;6.816;2023-04-16T03:51:03;11.80;99.90
3921;DHT22;1975;49.356;6.816;2023-04-16T03:53:28;11.80;99.90
3921;DHT22;1975;49.356;6.816;2023-04-16T03:55:54;11.80;99.90
3921;DHT22;1975;49.356;6.816;2023-04-16T03:58:19;11.80;99.90
3921;DHT22;1975;49.356;6.816;2023-04-16T04:00:45;11.80;99.90
3921;DHT22;1975;49.356;6.816;2023-04-16T04:03:11;11.80;99.90
3921;DHT22;1975;49.356;6.816;2023-04-16T04:05:37;11.80;99.90
3921;DHT22;1975;49.356;6.816;2023-04-16T04:08:03;11.70;99.90
3921;DHT22;1975;49.356;6.816;2023-04-16T04:10:30;11.70;99.90
3921;DHT22;1975;49.356;6.816;2023-04-16T04:12:56;11.70;99.90
3921;DHT22;1975;49.356;6.816;2023-04-16T04:15:21;11.70;99.90
3921;DHT22;1975;49.356;6.816;2023-04-16T04:17:46;11.70;99.90
3921;DHT22;1975;49.356;6.816;2023-04-16T04:20:12;11.70;99.90
3921;DHT22;1975;49.356;6.816;2023-04-16T04:22:37;11.70;99.90
3921;DHT22;1975;49.356;6.816;2023-04-16T04:25:03;11.70;99.90
3921;DHT22;1975;49.356;6.816;2023-04-16T04:27:28;11.70;99.90
3921;DHT22;1975;49.356;6.816;2023-04-16T04:29:55;11.70;99.90
3921;DHT22;1975;49.356;6.816;2023-04-16T04:32:20;11.70;99.90
3921;DHT22;1975;49.356;6.816;2023-04-16T04:34:46;11.70;99.90
3921;DHT22;1975;49.356;6.816;2023-04-16T04:37:11;11.70;99.90
3921;DHT22;1975;49.356;6.816;2023-04-16T04:39:36;11.60;99.90
3921;DHT22;1975;49.356;6.816;2023-04-16T04:42:02;11.60;99.90
3921;DHT22;1975;49.356;6.816;2023-04-16T04:44:27;11.60;99.90
3921;DHT22;1975;49.356;6.816;2023-04-16T04:46:53;11.60;99.90
3921;DHT22;1975;49.356;6.816;2023-04-16T04:49:18;11.60;99.90
3921;DHT22;1975;49.356;6.816;2023-04-16T04:51:44;11.60;99.90
3921;DHT22;1975;49.356;6.816;2023-04-16T04:54:09;11.60;99.90
3921;DHT22;1975;49.356;6.816;2023-04-16T04:56:35;11.60;99.90
3921;DHT22;1975;49.356;6.816;2023-04-16T04:59:00;11.60;99.90
3921;DHT22;1975;49.356;6.816;2023-04-16T05:01:26;11.60;99.90
3921;DHT22;1975;49.356;6.816;2023-04-16T05:03:51;11.60;99.90
3921;DHT22;1975;49.356;6.816;2023-04-16T05:06:16;11.60;99.90
3921;DHT22;1975;49.356;6.816;2023-04-16T05:08:42;11.60;99.90
3921;DHT22;1975;49.356;6.816;2023-04-16T05:11:08;11.60;99.90
3921;DHT22;1975;49.356;6.816;2023-04-16T05:13:33;11.50;99.90
3921;DHT22;1975;49.356;6.816;2023-04-16T05:15:58;11.50;99.90
3921;DHT22;1975;49.356;6.816;2023-04-16T05:18:24;11.50;99.90
3921;DHT22;1975;49.356;6.816;2023-04-16T05:20:49;11.50;99.90
3921;DHT22;1975;49.356;6.816;2023-04-16T05:23:15;11.50;99.90
3921;DHT22;1975;49.356;6.816;2023-04-16T05:25:40;11.50;99.90
3921;DHT22;1975;49.356;6.816;2023-04-16T05:28:06;11.50;99.90
3921;DHT22;1975;49.356;6.816;2023-04-16T05:30:31;11.50;99.90
3921;DHT22;1975;49.356;6.816;2023-04-16T05:32:56;11.50;99.90
3921;DHT22;1975;49.356;6.816;2023-04-16T05:35:22;11.50;99.90
3921;DHT22;1975;49.356;6.816;2023-04-16T05:37:47;11.50;99.90
3921;DHT22;1975;49.356;6.816;2023-04-16T05:40:13;11.50;99.90
3921;DHT22;1975;49.356;6.816;2023-04-16T05:42:38;11.50;99.90
3921;DHT22;1975;49.356;6.816;2023-04-16T05:45:04;11.50;99.90
3921;DHT22;1975;49.356;6.816;2023-04-16T05:47:30;11.50;99.90
3921;DHT22;1975;49.356;6.816;2023-04-16T05:49:55;11.50;99.90
3921;DHT22;1975;49.356;6.816;2023-04-16T05:52:20;11.50;99.90
3921;DHT22;1975;49.356;6.816;2023-04-16T05:54:46;11.40;99.90
3921;DHT22;1975;49.356;6.816;2023-04-16T05:57:12;11.50;99.90
3921;DHT22;1975;49.356;6.816;2023-04-16T05:59:37;11.50;99.90
3921;DHT22;1975;49.356;6.816;2023-04-16T06:02:03;11.40;99.90
3921;DHT22;1975;49.356;6.816;2023-04-16T06:04:28;11.40;99.90
3921;DHT22;1975;49.356;6.816;2023-04-16T06:06:55;11.50;99.90
3921;DHT22;1975;49.356;6.816;2023-04-16T06:09:20;11.40;99.90
3921;DHT22;1975;49.356;6.816;2023-04-16T06:11:46;11.40;99.90
3921;DHT22;1975;49.356;6.816;2023-04-16T06:14:11;11.40;99.90
3921;DHT22;1975;49.356;6.816;2023-04-16T06:16:37;11.40;99.90
3921;DHT22;1975;49.356;6.816;2023-04-16T06:19:02;11.40;99.90
3921;DHT22;1975;49.356;6.816;2023-04-16T06:21:28;11.40;99.90
3921;DHT22;1975;49.356;6.816;2023-04-16T06:23:54;11.40;99.90
3921;DHT22;1975;49.356;6.816;2023-04-16T06:26:20;11.40;99.90
3921;DHT22;1975;49.356;6.816;2023-04-16T06:28:45;11.40;99.90
3921;DHT22;1975;49.356;6.816;2023-04-16T06:31:11;11.40;99.90
3921;DHT22;1975;49.356;6.816;2023-04-16T06:33:36;11.40;99.90
3921;DHT22;1975;49.356;6.816;2023-04-16T06:36:02;11.40;99.90
3921;DHT22;1975;49.356;6.816;2023-04-16T06:38:27;11.40;99.90
3921;DHT22;1975;49.356;6.816;2023-04-16T06:40:53;11.40;99.90
3921;DHT22;1975;49.356;6.816;2023-04-16T06:43:18;11.40;99.90
3921;DHT22;1975;49.356;6.816;2023-04-16T06:45:44;11.40;99.90
3921;DHT22;1975;49.356;6.816;2023-04-16T06:48:09;11.40;99.90
3921;DHT22;1975;49.356;6.816;2023-04-16T06:50:35;11.40;99.90
3921;DHT22;1975;49.356;6.816;2023-04-16T06:53:00;11.40;99.90
3921;DHT22;1975;49.356;6.816;2023-04-16T06:55:26;11.40;99.90
3921;DHT22;1975;49.356;6.816;2023-04-16T06:57:51;11.40;99.90
3921;DHT22;1975;49.356;6.816;2023-04-16T07:00:16;11.50;99.90
3921;DHT22;1975;49.356;6.816;2023-04-16T07:02:42;11.40;99.90
3921;DHT22;1975;49.356;6.816;2023-04-16T07:05:07;11.40;99.90
3921;DHT22;1975;49.356;6.816;2023-04-16T07:07:33;11.50;99.90
3921;DHT22;1975;49.356;6.816;2023-04-16T07:09:58;11.40;99.90
3921;DHT22;1975;49.356;6.816;2023-04-16T07:12:24;11.50;99.90
3921;DHT22;1975;49.356;6.816;2023-04-16T07:14:49;11.50;99.90
3921;DHT22;1975;49.356;6.816;2023-04-16T07:17:15;11.50;99.90
3921;DHT22;1975;49.356;6.816;2023-04-16T07:19:40;11.50;99.90
3921;DHT22;1975;49.356;6.816;2023-04-16T07:22:06;11.50;99.90
3921;DHT22;1975;49.356;6.816;2023-04-16T07:24:32;11.50;99.90
3921;DHT22;1975;49.356;6.816;2023-04-16T07:26:57;11.50;99.90
3921;DHT22;1975;49.356;6.816;2023-04-16T07:29:23;11.50;99.90
3921;DHT22;1975;49.356;6.816;2023-04-16T07:31:48;11.50;99.90
3921;DHT22;1975;49.356;6.816;2023-04-16T07:34:14;11.50;99.90
3921;DHT22;1975;49.356;6.816;2023-04-16T07:36:39;11.50;99.90
3921;DHT22;1975;49.356;6.816;2023-04-16T07:39:05;11.50;99.90
3921;DHT22;1975;49.356;6.816;2023-04-16T07:41:31;11.50;99.90
3921;DHT22;1975;49.356;6.816;2023-04-16T07:43:56;11.50;99.90
3921;DHT22;1975;49.356;6.816;2023-04-16T07:46:22;11.50;99.90
3921;DHT22;1975;49.356;6.816;2023-04-16T07:48:47;11.60;99.90
3921;DHT22;1975;49.356;6.816;2023-04-16T07:51:13;11.60;99.90
3921;DHT22;1975;49.356;6.816;2023-04-16T07:53:38;11.60;99.90
3921;DHT22;1975;49.356;6.816;2023-04-16T07:56:04;11.60;99.90
3921;DHT22;1975;49.356;6.816;2023-04-16T07:58:30;11.60;99.90
3921;DHT22;1975;49.356;6.816;2023-04-16T08:00:55;11.60;99.90
3921;DHT22;1975;49.356;6.816;2023-04-16T08:03:21;11.60;99.90
3921;DHT22;1975;49.356;6.816;2023-04-16T08:05:46;11.60;99.90
3921;DHT22;1975;49.356;6.816;2023-04-16T08:08:12;11.60;99.90
3921;DHT22;1975;49.356;6.816;2023-04-16T08:10:38;11.60;99.90
3921;DHT22;1975;49.356;6.816;2023-04-16T08:13:03;11.60;99.90
3921;DHT22;1975;49.356;6.816;2023-04-16T08:15:29;11.60;99.90
3921;DHT22;1975;49.356;6.816;2023-04-16T08:17:55;11.60;99.90
3921;DHT22;1975;49.356;6.816;2023-04-16T08:20:20;11.60;99.90
3921;DHT22;1975;49.356;6.816;2023-04-16T08:22:46;11.60;99.90
3921;DHT22;1975;49.356;6.816;2023-04-16T08:25:12;11.60;99.90
3921;DHT22;1975;49.356;6.816;2023-04-16T08:27:37;11.60;99.90
3921;DHT22;1975;49.356;6.816;2023-04-16T08:30:03;11.60;99.90
3921;DHT22;1975;49.356;6.816;2023-04-16T08:32:28;11.60;99.90
3921;DHT22;1975;49.356;6.816;2023-04-16T08:34:54;11.60;99.90
3921;DHT22;1975;49.356;6.816;2023-04-16T08:37:19;11.60;99.90
3921;DHT22;1975;49.356;6.816;2023-04-16T08:39:45;11.60;99.90
3921;DHT22;1975;49.356;6.816;2023-04-16T08:42:12;11.60;99.90
3921;DHT22;1975;49.356;6.816;2023-04-16T08:44:40;11.70;99.90
3921;DHT22;1975;49.356;6.816;2023-04-16T08:47:07;11.70;99.90
3921;DHT22;1975;49.356;6.816;2023-04-16T08:49:34;11.70;99.90
3921;DHT22;1975;49.356;6.816;2023-04-16T08:52:00;11.70;99.90
3921;DHT22;1975;49.356;6.816;2023-04-16T08:57:13;11.70;99.90
3921;DHT22;1975;49.356;6.816;2023-04-16T08:59:41;11.70;99.90
3921;DHT22;1975;49.356;6.816;2023-04-16T09:02:10;11.70;99.90
3921;DHT22;1975;49.356;6.816;2023-04-16T09:04:36;11.70;99.90
3921;DHT22;1975;49.356;6.816;2023-04-16T09:07:02;11.80;99.90
3921;DHT22;1975;49.356;6.816;2023-04-16T09:09:28;11.80;99.90
3921;DHT22;1975;49.356;6.816;2023-04-16T09:11:54;11.80;99.90
3921;DHT22;1975;49.356;6.816;2023-04-16T09:14:20;11.80;99.90
3921;DHT22;1975;49.356;6.816;2023-04-16T09:16:46;11.80;99.90
3921;DHT22;1975;49.356;6.816;2023-04-16T09:19:15;11.80;99.90
3921;DHT22;1975;49.356;6.816;2023-04-16T09:21:41;11.80;99.90
3921;DHT22;1975;49.356;6.816;2023-04-16T09:24:07;11.80;99.90
3921;DHT22;1975;49.356;6.816;2023-04-16T09:26:33;11.80;99.90
3921;DHT22;1975;49.356;6.816;2023-04-16T09:28:59;11.80;99.90
3921;DHT22;1975;49.356;6.816;2023-04-16T09:31:25;11.80;99.90
3921;DHT22;1975;49.356;6.816;2023-04-16T09:34:04;11.80;99.90
3921;DHT22;1975;49.356;6.816;2023-04-16T09:36:30;11.90;99.90
3921;DHT22;1975;49.356;6.816;2023-04-16T09:38:57;11.90;99.90
3921;DHT22;1975;49.356;6.816;2023-04-16T09:41:26;11.90;99.90
3921;DHT22;1975;49.356;6.816;2023-04-16T09:46:22;11.90;99.90
3921;DHT22;1975;49.356;6.816;2023-04-16T09:48:47;11.90;99.90
3921;DHT22;1975;49.356;6.816;2023-04-16T09:51:13;11.90;99.90
3921;DHT22;1975;49.356;6.816;2023-04-16T09:53:38;11.90;99.90
3921;DHT22;1975;49.356;6.816;2023-04-16T09:56:05;11.90;99.90
3921;DHT22;1975;49.356;6.816;2023-04-16T09:58:30;11.90;99.90
3921;DHT22;1975;49.356;6.816;2023-04-16T10:03:31;12.00;99.90
3921;DHT22;1975;49.356;6.816;2023-04-16T10:08:31;12.00;99.90
3921;DHT22;1975;49.356;6.816;2023-04-16T10:10:56;12.00;99.90
3921;DHT22;1975;49.356;6.816;2023-04-16T10:13:22;12.00;99.90
3921;DHT22;1975;49.356;6.816;2023-04-16T10:15:47;12.00;99.90
3921;DHT22;1975;49.356;6.816;2023-04-16T10:18:14;12.00;99.90
3921;DHT22;1975;49.356;6.816;2023-04-16T10:20:40;12.00;99.90
3921;DHT22;1975;49.356;6.816;2023-04-16T10:23:05;12.00;99.90
3921;DHT22;1975;49.356;6.816;2023-04-16T10:25:31;12.00;99.90
3921;DHT22;1975;49.356;6.816;2023-04-16T10:27:56;12.00;99.90
3921;DHT22;1975;49.356;6.816;2023-04-16T10:30:23;12.00;99.90
3921;DHT22;1975;49.356;6.816;2023-04-16T10:32:49;12.00;99.90
3921;DHT22;1975;49.356;6.816;2023-04-16T10:35:18;12.00;99.90
3921;DHT22;1975;49.356;6.816;2023-04-16T10:37:43;12.00;99.90
3921;DHT22;1975;49.356;6.816;2023-04-16T10:40:25;12.00;99.90
3921;DHT22;1975;49.356;6.816;2023-04-16T10:42:57;12.00;99.90
3921;DHT22;1975;49.356;6.816;2023-04-16T10:45:30;12.00;99.90
3921;DHT22;1975;49.356;6.816;2023-04-16T10:47:57;12.00;99.90
3921;DHT22;1975;49.356;6.816;2023-04-16T10:50:23;12.00;99.90
3921;DHT22;1975;49.356;6.816;2023-04-16T10:52:48;12.00;99.90
3921;DHT22;1975;49.356;6.816;2023-04-16T10:55:16;12.00;99.90
3921;DHT22;1975;49.356;6.816;2023-04-16T10:57:42;12.10;99.90
3921;DHT22;1975;49.356;6.816;2023-04-16T11:00:23;12.10;99.90
3921;DHT22;1975;49.356;6.816;2023-04-16T11:02:51;12.10;99.90
3921;DHT22;1975;49.356;6.816;2023-04-16T11:05:20;12.10;99.90
3921;DHT22;1975;49.356;6.816;2023-04-16T11:07:46;12.10;99.90
3921;DHT22;1975;49.356;6.816;2023-04-16T11:10:12;12.10;99.90
3921;DHT22;1975;49.356;6.816;2023-04-16T11:12:38;12.10;99.90
3921;DHT22;1975;49.356;6.816;2023-04-16T11:15:05;12.10;99.90
3921;DHT22;1975;49.356;6.816;2023-04-16T11:20:06;12.10;99.90
3921;DHT22;1975;49.356;6.816;2023-04-16T11:22:33;12.10;99.90
3921;DHT22;1975;49.356;6.816;2023-04-16T11:24:59;12.10;99.90
3921;DHT22;1975;49.356;6.816;2023-04-16T11:27:25;12.10;99.90
3921;DHT22;1975;49.356;6.816;2023-04-16T11:30:00;12.10;99.90
3921;DHT22;1975;49.356;6.816;2023-04-16T11:32:26;12.10;99.90
3921;DHT22;1975;49.356;6.816;2023-04-16T11:34:52;12.10;99.90
3921;DHT22;1975;49.356;6.816;2023-04-16T11:37:19;12.20;99.90
3921;DHT22;1975;49.356;6.816;2023-04-16T11:39:50;12.20;99.90
3921;DHT22;1975;49.356;6.816;2023-04-16T11:42:20;12.20;99.90
3921;DHT22;1975;49.356;6.816;2023-04-16T11:44:50;12.20;99.90
3921;DHT22;1975;49.356;6.816;2023-04-16T11:47:16;12.20;99.90
3921;DHT22;1975;49.356;6.816;2023-04-16T11:49:41;12.30;99.90
3921;DHT22;1975;49.356;6.816;2023-04-16T11:52:07;12.20;99.90
3921;DHT22;1975;49.356;6.816;2023-04-16T11:54:32;12.30;99.90
3921;DHT22;1975;49.356;6.816;2023-04-16T11:56:59;12.30;99.90
3921;DHT22;1975;49.356;6.816;2023-04-16T11:59:25;12.30;99.90
3921;DHT22;1975;49.356;6.816;2023-04-16T12:01:51;12.30;99.90
3921;DHT22;1975;49.356;6.816;2023-04-16T12:04:18;12.30;99.90
3921;DHT22;1975;49.356;6.816;2023-04-16T12:09:28;12.40;99.90
3921;DHT22;1975;49.356;6.816;2023-04-16T12:11:53;12.40;99.90
3921;DHT22;1975;49.356;6.816;2023-04-16T12:14:19;12.40;99.90
3921;DHT22;1975;49.356;6.816;2023-04-16T12:16:44;12.40;99.90
3921;DHT22;1975;49.356;6.816;2023-04-16T12:19:10;12.40;99.90
3921;DHT22;1975;49.356;6.816;2023-04-16T12:24:01;12.40;99.90
3921;DHT22;1975;49.356;6.816;2023-04-16T12:26:34;12.50;99.90
3921;DHT22;1975;49.356;6.816;2023-04-16T12:29:13;12.50;99.90
3921;DHT22;1975;49.356;6.816;2023-04-16T12:31:38;12.50;99.90
3921;DHT22;1975;49.356;6.816;2023-04-16T12:34:04;12.50;99.90
3921;DHT22;1975;49.356;6.816;2023-04-16T12:36:29;12.50;99.90
3921;DHT22;1975;49.356;6.816;2023-04-16T12:38:55;12.50;99.90
3921;DHT22;1975;49.356;6.816;2023-04-16T12:41:21;12.60;99.90
3921;DHT22;1975;49.356;6.816;2023-04-16T12:43:46;12.60;99.90
3921;DHT22;1975;49.356;6.816;2023-04-16T12:46:12;12.60;99.90
3921;DHT22;1975;49.356;6.816;2023-04-16T12:48:37;12.60;99.90
3921;DHT22;1975;49.356;6.816;2023-04-16T12:51:03;12.60;99.90
3921;DHT22;1975;49.356;6.816;2023-04-16T12:53:28;12.60;99.90
3921;DHT22;1975;49.356;6.816;2023-04-16T12:55:54;12.70;99.90
3921;DHT22;1975;49.356;6.816;2023-04-16T12:58:19;12.70;99.90
3921;DHT22;1975;49.356;6.816;2023-04-16T13:00:45;12.70;99.90
3921;DHT22;1975;49.356;6.816;2023-04-16T13:03:10;12.70;99.90
3921;DHT22;1975;49.356;6.816;2023-04-16T13:05:36;12.70;99.90
3921;DHT22;1975;49.356;6.816;2023-04-16T13:08:01;12.70;99.90
3921;DHT22;1975;49.356;6.816;2023-04-16T13:10:27;12.70;99.90
3921;DHT22;1975;49.356;6.816;2023-04-16T13:12:52;12.80;99.90
3921;DHT22;1975;49.356;6.816;2023-04-16T13:15:17;12.80;99.90
3921;DHT22;1975;49.356;6.816;2023-04-16T13:17:43;12.80;99.90
3921;DHT22;1975;49.356;6.816;2023-04-16T13:20:09;12.80;99.90
3921;DHT22;1975;49.356;6.816;2023-04-16T13:22:34;12.80;99.90
3921;DHT22;1975;49.356;6.816;2023-04-16T13:25:00;12.80;99.90
3921;DHT22;1975;49.356;6.816;2023-04-16T13:27:25;12.80;99.90
3921;DHT22;1975;49.356;6.816;2023-04-16T13:29:51;12.90;99.90
3921;DHT22;1975;49.356;6.816;2023-04-16T13:32:16;12.90;99.90
3921;DHT22;1975;49.356;6.816;2023-04-16T13:34:43;12.90;99.90
3921;DHT22;1975;49.356;6.816;2023-04-16T13:37:08;12.90;99.90
3921;DHT22;1975;49.356;6.816;2023-04-16T13:39:34;12.90;99.90
3921;DHT22;1975;49.356;6.816;2023-04-16T13:41:59;12.90;99.90
3921;DHT22;1975;49.356;6.816;2023-04-16T13:44:24;12.90;99.90
3921;DHT22;1975;49.356;6.816;2023-04-16T13:46:50;13.00;99.90
3921;DHT22;1975;49.356;6.816;2023-04-16T13:49:16;13.00;99.90
3921;DHT22;1975;49.356;6.816;2023-04-16T13:51:42;13.00;99.90
3921;DHT22;1975;49.356;6.816;2023-04-16T13:54:08;13.00;99.90
3921;DHT22;1975;49.356;6.816;2023-04-16T13:56:34;13.00;99.90
3921;DHT22;1975;49.356;6.816;2023-04-16T13:58:59;13.00;99.90
3921;DHT22;1975;49.356;6.816;2023-04-16T14:01:25;13.00;99.90
3921;DHT22;1975;49.356;6.816;2023-04-16T14:03:50;13.00;99.90
3921;DHT22;1975;49.356;6.816;2023-04-16T14:06:16;13.00;99.90
3921;DHT22;1975;49.356;6.816;2023-04-16T14:08:42;13.10;99.90
3921;DHT22;1975;49.356;6.816;2023-04-16T14:11:08;13.10;99.90
3921;DHT22;1975;49.356;6.816;2023-04-16T14:13:33;13.10;99.90
3921;DHT22;1975;49.356;6.816;2023-04-16T14:15:59;13.10;99.90
3921;DHT22;1975;49.356;6.816;2023-04-16T14:18:24;13.10;99.90
3921;DHT22;1975;49.356;6.816;2023-04-16T14:20:50;13.10;99.90
3921;DHT22;1975;49.356;6.816;2023-04-16T14:23:15;13.10;99.90
3921;DHT22;1975;49.356;6.816;2023-04-16T14:25:41;13.10;99.90
3921;DHT22;1975;49.356;6.816;2023-04-16T14:28:06;13.10;99.90
3921;DHT22;1975;49.356;6.816;2023-04-16T14:30:33;13.10;99.90
3921;DHT22;1975;49.356;6.816;2023-04-16T14:32:58;13.20;99.90
3921;DHT22;1975;49.356;6.816;2023-04-16T14:35:24;13.20;99.90
3921;DHT22;1975;49.356;6.816;2023-04-16T14:37:49;13.20;99.90
3921;DHT22;1975;49.356;6.816;2023-04-16T14:40:15;13.20;99.90
3921;DHT22;1975;49.356;6.816;2023-04-16T14:42:40;13.20;99.90
3921;DHT22;1975;49.356;6.816;2023-04-16T14:45:06;13.20;99.90
3921;DHT22;1975;49.356;6.816;2023-04-16T14:47:32;13.20;99.90
3921;DHT22;1975;49.356;6.816;2023-04-16T14:49:58;13.20;99.90
3921;DHT22;1975;49.356;6.816;2023-04-16T14:52:24;13.20;99.90
3921;DHT22;1975;49.356;6.816;2023-04-16T14:54:50;13.20;99.90
3921;DHT22;1975;49.356;6.816;2023-04-16T14:57:16;13.20;99.90
3921;DHT22;1975;49.356;6.816;2023-04-16T14:59:42;13.20;99.90
3921;DHT22;1975;49.356;6.816;2023-04-16T15:02:07;13.30;99.90
3921;DHT22;1975;49.356;6.816;2023-04-16T15:04:33;13.30;99.90
3921;DHT22;1975;49.356;6.816;2023-04-16T15:06:58;13.30;99.90
3921;DHT22;1975;49.356;6.816;2023-04-16T15:09:24;13.30;99.90
3921;DHT22;1975;49.356;6.816;2023-04-16T15:11:50;13.30;99.90
3921;DHT22;1975;49.356;6.816;2023-04-16T15:14:16;13.30;99.90
3921;DHT22;1975;49.356;6.816;2023-04-16T15:16:42;13.30;99.90
3921;DHT22;1975;49.356;6.816;2023-04-16T15:19:07;13.30;99.90
3921;DHT22;1975;49.356;6.816;2023-04-16T15:21:33;13.30;99.90
3921;DHT22;1975;49.356;6.816;2023-04-16T15:23:58;13.40;99.90
3921;DHT22;1975;49.356;6.816;2023-04-16T15:26:24;13.40;99.90
3921;DHT22;1975;49.356;6.816;2023-04-16T15:28:50;13.40;99.90
3921;DHT22;1975;49.356;6.816;2023-04-16T15:31:15;13.40;99.90
3921;DHT22;1975;49.356;6.816;2023-04-16T15:33:41;13.40;99.90
3921;DHT22;1975;49.356;6.816;2023-04-16T15:36:06;13.40;99.90
3921;DHT22;1975;49.356;6.816;2023-04-16T15:38:31;13.50;99.90
3921;DHT22;1975;49.356;6.816;2023-04-16T15:40:57;13.50;99.90
3921;DHT22;1975;49.356;6.816;2023-04-16T15:43:25;13.60;99.90
3921;DHT22;1975;49.356;6.816;2023-04-16T15:45:51;13.60;99.90
3921;DHT22;1975;49.356;6.816;2023-04-16T15:48:16;13.60;99.90
3921;DHT22;1975;49.356;6.816;2023-04-16T15:50:41;13.60;99.90
3921;DHT22;1975;49.356;6.816;2023-04-16T15:53:07;13.60;99.90
3921;DHT22;1975;49.356;6.816;2023-04-16T15:55:33;13.60;99.90
3921;DHT22;1975;49.356;6.816;2023-04-16T15:57:58;13.60;99.90
3921;DHT22;1975;49.356;6.816;2023-04-16T16:00:24;13.60;99.90
3921;DHT22;1975;49.356;6.816;2023-04-16T16:02:50;13.60;99.90
3921;DHT22;1975;49.356;6.816;2023-04-16T16:05:15;13.60;99.90
3921;DHT22;1975;49.356;6.816;2023-04-16T16:07:41;13.60;99.90
3921;DHT22;1975;49.356;6.816;2023-04-16T16:10:07;13.60;99.90